Time;durP1;ratioP1;P1;durP2;ratioP2;P2;SDS_P1;SDS_P2;PMS_P1;PMS_P2;Temp;Humidity;BMP_temperature;BMP_pressure;BME280_temperature;BME280_humidity;BME280_pressure;Samples;Min_cycle;Max_cycle;Signal;HPM_P1;HPM_P2
2021/06/28 00:02:05;;;;;;;1.75;1.65;;;;;;;21.05;74.94;96649.41;5090151;28;20280;-58
2021/06/28 00:04:31;;;;;;;2.00;1.90;;;;;;;20.93;76.58;96643.78;5101527;28;20544;-59
2021/06/28 00:06:57;;;;;;;2.00;1.90;;;;;;;20.83;75.98;96640.53;5099332;28;20172;-58
2021/06/28 00:09:22;;;;;;;2.45;2.25;;;;;;;20.87;76.17;96649.50;5104485;28;20652;-57
2021/06/28 00:11:48;;;;;;;1.80;1.75;;;;;;;20.85;75.91;96651.66;5109306;28;20187;-57
2021/06/28 00:14:13;;;;;;;2.55;2.20;;;;;;;20.85;76.88;96633.78;5106231;28;20202;-60
2021/06/28 00:16:39;;;;;;;2.00;1.90;;;;;;;21.06;75.56;96628.88;5095252;28;20310;-59
2021/06/28 00:19:04;;;;;;;2.28;2.17;;;;;;;21.19;75.42;96619.31;5103239;28;20200;-57
2021/06/28 00:21:30;;;;;;;2.38;2.28;;;;;;;21.20;75.76;96623.56;5094207;28;20629;-58
2021/06/28 00:23:56;;;;;;;2.45;2.35;;;;;;;21.16;76.34;96626.03;5092223;28;20262;-57
2021/06/28 00:26:21;;;;;;;2.70;2.60;;;;;;;21.18;76.84;96612.41;5111374;28;20263;-56
2021/06/28 00:28:47;;;;;;;2.97;2.78;;;;;;;21.15;76.55;96616.47;5110494;28;20179;-56
2021/06/28 00:31:12;;;;;;;3.47;3.28;;;;;;;21.22;76.94;96616.84;5099837;28;20199;-58
2021/06/28 00:33:38;;;;;;;2.90;2.70;;;;;;;21.27;76.99;96613.28;5106334;28;20536;-59
2021/06/28 00:36:03;;;;;;;3.83;3.38;;;;;;;21.17;77.74;96613.50;5091462;28;20192;-57
2021/06/28 00:38:29;;;;;;;3.45;3.25;;;;;;;21.09;78.51;96610.41;5105779;28;20228;-57
2021/06/28 00:40:55;;;;;;;3.00;2.90;;;;;;;21.14;78.16;96610.34;5090842;28;20353;-59
2021/06/28 00:43:20;;;;;;;2.90;2.70;;;;;;;20.86;79.49;96602.63;5102771;28;20501;-59
2021/06/28 00:45:46;;;;;;;3.30;2.90;;;;;;;20.77;80.40;96604.41;5093829;28;20179;-58
2021/06/28 00:48:17;;;;;;;3.20;3.10;;;;;;;20.61;80.91;96594.03;5104473;28;20188;-57
2021/06/28 00:50:52;;;;;;;3.40;3.10;;;;;;;20.64;81.37;96595.31;5101508;28;20180;-57
2021/06/28 00:53:20;;;;;;;3.15;2.95;;;;;;;20.73;81.17;96588.22;5093011;28;20209;-58
2021/06/28 00:55:46;;;;;;;3.75;3.28;;;;;;;20.80;80.20;96588.59;5093540;28;20672;-58
2021/06/28 00:58:12;;;;;;;3.58;3.38;;;;;;;20.78;80.12;96588.13;5102533;28;20188;-57
2021/06/28 01:00:38;;;;;;;3.90;3.60;;;;;;;20.73;80.79;96585.56;5095353;28;20669;-59
2021/06/28 01:03:04;;;;;;;3.50;3.30;;;;;;;20.73;81.12;96585.56;5092803;28;20195;-56
2021/06/28 01:05:33;;;;;;;3.70;3.50;;;;;;;20.90;80.81;96577.75;5105757;28;20184;-57
2021/06/28 01:08:03;;;;;;;4.07;3.78;;;;;;;20.94;79.97;96577.94;5092920;28;20184;-56
2021/06/28 01:10:29;;;;;;;3.85;3.65;;;;;;;20.90;80.81;96577.75;5097399;28;20664;-57
2021/06/28 01:12:55;;;;;;;4.07;3.78;;;;;;;20.73;81.49;96582.91;5092281;28;20280;-57
2021/06/28 01:15:22;;;;;;;3.67;3.47;;;;;;;20.79;81.14;96583.59;5110694;28;20232;-59
2021/06/28 01:17:48;;;;;;;3.70;3.40;;;;;;;20.75;81.26;96575.38;5097217;28;20180;-56
2021/06/28 01:20:15;;;;;;;3.75;3.55;;;;;;;20.77;81.55;96569.78;5102762;28;20203;-57
2021/06/28 01:22:44;;;;;;;3.75;3.55;;;;;;;20.91;80.60;96573.19;5106944;28;20188;-58
2021/06/28 01:25:12;;;;;;;3.50;3.30;;;;;;;20.69;81.54;96577.34;5080894;28;20180;-57
2021/06/28 01:27:38;;;;;;;3.13;2.92;;;;;;;20.88;80.26;96571.94;5108287;28;20184;-58
2021/06/28 01:30:07;;;;;;;3.60;3.40;;;;;;;20.74;81.37;96565.81;5104977;28;20187;-57
2021/06/28 01:32:33;;;;;;;3.53;3.33;;;;;;;20.76;81.36;96566.31;5112775;28;20535;-57
2021/06/28 01:34:59;;;;;;;3.97;3.78;;;;;;;20.92;80.93;96574.78;5093098;28;20486;-58
2021/06/28 01:37:28;;;;;;;3.38;3.17;;;;;;;20.95;81.18;96564.34;5110082;28;20696;-59
2021/06/28 01:39:56;;;;;;;3.88;3.67;;;;;;;20.88;81.90;96560.47;5102068;28;20192;-58
2021/06/28 01:42:23;;;;;;;4.22;3.88;;;;;;;20.89;81.86;96546.88;5092189;28;20233;-57
2021/06/28 01:44:49;;;;;;;3.88;3.58;;;;;;;20.98;81.63;96549.63;5096250;28;20207;-57
2021/06/28 01:47:15;;;;;;;3.65;3.45;;;;;;;20.94;81.83;96546.75;5103141;28;20192;-58
2021/06/28 01:49:41;;;;;;;3.60;3.33;;;;;;;20.91;81.44;96546.56;5107729;28;20188;-59
2021/06/28 01:52:07;;;;;;;4.95;3.70;;;;;;;20.90;81.16;96550.34;5097340;28;20268;-57
2021/06/28 01:54:33;;;;;;;3.65;3.45;;;;;;;20.92;81.36;96543.59;5107292;28;20726;-57
2021/06/28 01:56:59;;;;;;;3.58;3.38;;;;;;;20.92;81.44;96540.16;5098085;28;20192;-59
2021/06/28 01:59:34;;;;;;;3.83;3.63;;;;;;;21.02;80.57;96530.06;5111032;28;20204;-57
2021/06/28 02:02:01;;;;;;;5.22;3.85;;;;;;;20.98;80.41;96533.63;5112422;28;20175;-57
2021/06/28 02:04:27;;;;;;;3.78;3.58;;;;;;;20.94;80.70;96544.09;5103826;28;20212;-57
2021/06/28 02:06:53;;;;;;;3.65;3.35;;;;;;;20.87;81.61;96545.59;5095352;28;20629;-58
2021/06/28 02:09:19;;;;;;;4.07;3.88;;;;;;;20.93;81.37;96547.84;5093618;28;20204;-58
2021/06/28 02:11:46;;;;;;;4.00;3.80;;;;;;;20.83;81.80;96555.25;5108982;28;20188;-59
2021/06/28 02:14:11;;;;;;;3.70;3.40;;;;;;;20.82;81.13;96546.47;5102445;28;20240;-57
2021/06/28 02:16:37;;;;;;;3.80;3.50;;;;;;;20.80;81.42;96531.88;5095118;28;20192;-57
2021/06/28 02:19:03;;;;;;;4.05;3.85;;;;;;;20.97;80.65;96537.38;5097765;28;20212;-57
2021/06/28 02:21:28;;;;;;;3.60;3.30;;;;;;;20.93;80.62;96529.19;5110754;28;20180;-57
2021/06/28 02:23:54;;;;;;;3.70;3.30;;;;;;;20.96;80.00;96527.78;5107387;28;20193;-57
2021/06/28 02:26:19;;;;;;;3.78;3.53;;;;;;;21.00;79.99;96523.47;5102417;28;20241;-58
2021/06/28 02:28:48;;;;;;;4.13;3.85;;;;;;;21.07;79.25;96521.94;5111782;28;20184;-57
2021/06/28 02:31:19;;;;;;;3.90;3.60;;;;;;;21.01;79.41;96535.72;5097149;28;20184;-59
2021/06/28 02:33:45;;;;;;;3.67;3.47;;;;;;;20.93;80.17;96528.41;5081122;28;20179;-57
2021/06/28 02:36:11;;;;;;;3.53;3.33;;;;;;;20.89;80.51;96532.75;5097671;28;20204;-57
2021/06/28 02:38:38;;;;;;;3.38;3.17;;;;;;;20.80;80.94;96526.53;5103844;28;20311;-57
2021/06/28 02:41:04;;;;;;;3.95;3.65;;;;;;;20.88;80.81;96531.19;5091162;28;20629;-58
2021/06/28 02:43:30;;;;;;;3.70;3.50;;;;;;;20.85;80.87;96534.41;5106370;28;20187;-58
2021/06/28 02:45:56;;;;;;;3.45;3.25;;;;;;;20.72;80.68;96546.69;5100668;28;20258;-57
2021/06/28 02:48:22;;;;;;;4.10;3.80;;;;;;;20.72;81.00;96552.81;5102174;28;20189;-57
2021/06/28 02:50:49;;;;;;;3.83;3.53;;;;;;;20.77;80.67;96554.56;5096199;28;20188;-57
2021/06/28 02:53:17;;;;;;;3.63;3.42;;;;;;;20.67;80.38;96563.53;5095908;28;20193;-57
2021/06/28 02:55:43;;;;;;;3.40;3.25;;;;;;;20.71;80.16;96571.75;5107217;28;20226;-60
2021/06/28 02:58:09;;;;;;;3.05;2.85;;;;;;;20.72;80.13;96568.78;5091884;28;20538;-57
2021/06/28 03:00:34;;;;;;;3.60;3.00;;;;;;;20.36;82.72;96567.88;5093240;28;20201;-57
2021/06/28 03:02:59;;;;;;;4.00;3.70;;;;;;;20.39;83.12;96572.63;5111809;28;20175;-56
2021/06/28 03:05:26;;;;;;;3.97;3.78;;;;;;;20.51;82.46;96572.09;5095958;28;20281;-58
2021/06/28 03:07:51;;;;;;;3.80;3.58;;;;;;;20.55;81.92;96581.13;5106087;28;20697;-59
2021/06/28 03:10:17;;;;;;;3.78;3.47;;;;;;;20.73;81.19;96594.31;5102498;28;20263;-59
2021/06/28 03:12:42;;;;;;;3.53;3.33;;;;;;;20.90;80.10;96599.06;5095347;28;20196;-60
2021/06/28 03:15:11;;;;;;;3.90;3.70;;;;;;;21.02;80.30;96594.03;5094313;28;20272;-59
2021/06/28 03:17:37;;;;;;;3.58;3.38;;;;;;;21.07;79.09;96601.91;5080004;28;20225;-57
2021/06/28 03:20:08;;;;;;;4.07;3.88;;;;;;;20.88;79.80;96600.47;5110877;28;20179;-59
2021/06/28 03:22:35;;;;;;;3.60;3.40;;;;;;;20.69;80.89;96592.53;5103294;28;20191;-57
2021/06/28 03:25:01;;;;;;;4.03;3.72;;;;;;;20.88;79.45;96608.44;5098621;28;20533;-57
2021/06/28 03:27:26;;;;;;;4.40;4.05;;;;;;;20.91;79.37;96603.31;5109000;28;20655;-59
2021/06/28 03:29:53;;;;;;;3.97;3.53;;;;;;;20.24;81.91;96605.56;5090277;28;20192;-58
2021/06/28 03:32:19;;;;;;;3.67;3.47;;;;;;;20.45;81.72;96597.28;5100546;28;20207;-57
2021/06/28 03:34:44;;;;;;;3.65;3.45;;;;;;;20.62;81.16;96592.94;5101139;28;20211;-59
2021/06/28 03:37:10;;;;;;;4.05;3.75;;;;;;;20.84;79.81;96592.28;5108807;28;20245;-59
2021/06/28 03:39:35;;;;;;;3.53;3.33;;;;;;;20.88;79.32;96584.47;5095984;28;20215;-57
2021/06/28 03:42:00;;;;;;;3.10;2.90;;;;;;;20.78;79.33;96582.00;5109605;28;20795;-58
2021/06/28 03:44:26;;;;;;;3.70;3.50;;;;;;;20.45;81.49;96574.06;5101121;28;20184;-57
2021/06/28 03:46:51;;;;;;;3.75;3.45;;;;;;;20.23;83.18;96571.25;5105395;28;20659;-59
2021/06/28 03:49:16;;;;;;;3.88;3.67;;;;;;;20.09;85.04;96565.13;5094910;28;20263;-57
2021/06/28 03:51:42;;;;;;;3.80;3.60;;;;;;;20.04;85.16;96549.25;5108921;28;20204;-60
2021/06/28 03:54:08;;;;;;;3.75;3.55;;;;;;;20.03;85.12;96534.34;5090197;28;20180;-56
2021/06/28 03:56:33;;;;;;;4.15;3.95;;;;;;;19.99;85.88;96523.53;5093938;28;20184;-57
2021/06/28 03:58:59;;;;;;;3.75;3.55;;;;;;;19.96;86.78;96532.06;5093687;28;20212;-56
2021/06/28 04:01:24;;;;;;;5.05;4.75;;;;;;;20.22;85.10;96538.56;5110286;28;20240;-56
2021/06/28 04:03:51;;;;;;;5.18;4.88;;;;;;;20.39;84.12;96546.00;5103665;28;20187;-58
2021/06/28 04:06:18;;;;;;;5.25;4.95;;;;;;;20.62;83.11;96545.00;5092015;28;20185;-56
2021/06/28 04:08:43;;;;;;;5.57;5.28;;;;;;;20.73;82.72;96550.94;5108535;28;20176;-59
2021/06/28 04:11:09;;;;;;;5.28;4.97;;;;;;;20.88;81.78;96541.84;5100407;28;20250;-57
2021/06/28 04:13:34;;;;;;;5.18;4.88;;;;;;;20.93;80.92;96547.06;5104337;28;20184;-57
2021/06/28 04:15:59;;;;;;;4.53;4.22;;;;;;;20.96;80.09;96555.22;5095376;28;20271;-59
2021/06/28 04:18:25;;;;;;;4.43;4.20;;;;;;;21.09;79.66;96549.09;5106365;28;20175;-58
2021/06/28 04:20:50;;;;;;;4.55;4.30;;;;;;;20.96;80.33;96557.09;5090401;28;20207;-55
2021/06/28 04:23:17;;;;;;;4.60;4.30;;;;;;;20.90;80.27;96551.09;5103897;28;20184;-56
2021/06/28 04:25:42;;;;;;;4.68;4.38;;;;;;;20.80;81.11;96556.63;5098450;28;20180;-58
2021/06/28 04:28:08;;;;;;;4.28;3.97;;;;;;;21.04;80.43;96554.53;5105167;28;20184;-57
2021/06/28 04:30:33;;;;;;;5.07;4.68;;;;;;;21.38;78.79;96548.78;5094515;28;20220;-58
2021/06/28 04:32:59;;;;;;;4.20;3.90;;;;;;;21.49;78.18;96552.00;5089083;28;20216;-58
2021/06/28 04:35:29;;;;;;;5.60;5.03;;;;;;;21.59;77.72;96546.41;5098811;28;20188;-59
2021/06/28 04:37:56;;;;;;;3.97;3.78;;;;;;;21.37;76.89;96541.84;5098580;28;20620;-58
2021/06/28 04:40:27;;;;;;;4.20;3.80;;;;;;;20.87;80.50;96533.06;5108122;28;20300;-58
2021/06/28 04:42:53;;;;;;;3.83;3.53;;;;;;;20.48;82.21;96533.56;5095649;28;20176;-58
2021/06/28 04:45:20;;;;;;;3.65;3.40;;;;;;;20.62;82.06;96536.22;5110133;28;20212;-58
2021/06/28 04:47:46;;;;;;;4.00;3.70;;;;;;;20.61;82.37;96548.75;5096863;28;20187;-60
2021/06/28 04:50:12;;;;;;;3.70;3.50;;;;;;;20.85;81.24;96556.53;5107056;28;20212;-58
2021/06/28 04:52:38;;;;;;;7.18;3.67;;;;;;;21.29;79.37;96547.88;5106437;28;20188;-59
2021/06/28 04:55:09;;;;;;;3.00;2.80;;;;;;;21.48;78.60;96548.53;5099864;28;20258;-60
2021/06/28 04:57:35;;;;;;;3.83;3.53;;;;;;;21.64;77.81;96551.63;5097003;28;20626;-58
2021/06/28 05:00:01;;;;;;;3.78;3.47;;;;;;;21.66;77.92;96549.47;5098607;28;20204;-60
2021/06/28 05:02:26;;;;;;;3.80;3.50;;;;;;;21.63;77.71;96555.38;5106852;28;20259;-60
2021/06/28 05:04:52;;;;;;;3.55;3.35;;;;;;;21.69;77.73;96553.38;5092159;28;20184;-59
2021/06/28 05:07:17;;;;;;;3.67;3.38;;;;;;;21.68;78.10;96541.16;5101907;28;20192;-59
2021/06/28 05:09:44;;;;;;;3.53;3.30;;;;;;;21.54;78.95;96554.53;5093709;28;20195;-59
2021/06/28 05:12:11;;;;;;;3.50;3.20;;;;;;;21.65;78.55;96553.22;5089008;28;20195;-59
2021/06/28 05:14:37;;;;;;;3.40;3.20;;;;;;;21.60;78.88;96548.00;5097481;28;20195;-59
2021/06/28 05:17:02;;;;;;;4.43;2.80;;;;;;;22.19;76.51;96551.38;5099686;28;20185;-59
2021/06/28 05:19:28;;;;;;;2.58;2.40;;;;;;;22.76;73.12;96553.06;5105217;28;20211;-59
2021/06/28 05:21:53;;;;;;;2.78;2.20;;;;;;;22.98;71.80;96556.75;5093390;28;20246;-59
2021/06/28 05:24:18;;;;;;;2.22;2.03;;;;;;;23.06;70.52;96551.44;5090737;28;20215;-59
2021/06/28 05:26:44;;;;;;;2.80;1.95;;;;;;;23.09;70.44;96561.50;5098409;28;20188;-58
2021/06/28 05:29:10;;;;;;;2.70;2.05;;;;;;;23.49;68.96;96561.41;5102023;28;20292;-58
2021/06/28 05:31:35;;;;;;;2.00;1.90;;;;;;;23.79;67.16;96565.03;5106200;28;20194;-59
2021/06/28 05:34:00;;;;;;;2.20;1.73;;;;;;;24.04;66.08;96553.50;5106258;28;20192;-60
2021/06/28 05:36:26;;;;;;;1.88;1.77;;;;;;;24.02;65.24;96551.13;5097996;28;20180;-60
2021/06/28 05:38:51;;;;;;;1.98;1.85;;;;;;;23.99;65.89;96554.44;5090672;28;20232;-60
2021/06/28 05:41:17;;;;;;;1.90;1.70;;;;;;;24.10;65.58;96551.44;5109634;28;20208;-59
2021/06/28 05:43:44;;;;;;;1.92;1.80;;;;;;;24.37;64.85;96551.84;5092421;28;20211;-59
2021/06/28 05:46:09;;;;;;;2.38;2.17;;;;;;;24.76;63.46;96552.63;5092622;28;20990;-60
2021/06/28 05:48:35;;;;;;;1.80;1.70;;;;;;;25.09;62.05;96555.47;5110620;28;20180;-59
2021/06/28 05:51:01;;;;;;;1.75;1.63;;;;;;;25.55;60.33;96554.53;5108418;28;20203;-59
2021/06/28 05:53:26;;;;;;;2.03;1.92;;;;;;;25.58;59.34;96556.56;5099350;28;20180;-60
2021/06/28 05:55:52;;;;;;;1.83;1.73;;;;;;;25.34;60.93;96554.53;5094028;28;20189;-59
2021/06/28 05:58:19;;;;;;;1.60;1.50;;;;;;;25.88;58.81;96562.66;5093839;28;20192;-59
2021/06/28 06:00:44;;;;;;;1.90;1.80;;;;;;;26.11;58.06;96561.16;5108668;28;20674;-60
2021/06/28 06:03:10;;;;;;;4.00;1.70;;;;;;;26.09;56.76;96548.06;5110162;28;20263;-60
2021/06/28 06:05:35;;;;;;;2.00;1.90;;;;;;;25.73;57.92;96542.56;5102061;28;20191;-60
2021/06/28 06:08:01;;;;;;;1.70;1.60;;;;;;;25.76;58.17;96549.16;5102858;28;20197;-59
2021/06/28 06:10:26;;;;;;;2.00;1.90;;;;;;;25.71;59.29;96549.38;5108321;28;20210;-60
2021/06/28 06:12:52;;;;;;;1.80;1.70;;;;;;;24.90;60.00;96557.81;5092032;28;20603;-59
2021/06/28 06:15:17;;;;;;;1.83;1.73;;;;;;;25.07;60.32;96552.34;5095668;28;20184;-59
2021/06/28 06:17:44;;;;;;;1.88;1.77;;;;;;;25.43;59.74;96555.25;5102912;28;20196;-60
2021/06/28 06:20:10;;;;;;;2.10;1.88;;;;;;;25.63;58.50;96551.78;5106831;28;20206;-60
2021/06/28 06:22:36;;;;;;;2.00;1.90;;;;;;;25.85;59.55;96557.94;5109854;28;20190;-60
2021/06/28 06:25:02;;;;;;;2.10;2.00;;;;;;;25.85;60.29;96560.63;5094114;28;20547;-60
2021/06/28 06:27:27;;;;;;;1.95;1.85;;;;;;;26.04;59.05;96559.00;5095706;28;20191;-59
2021/06/28 06:29:52;;;;;;;3.28;2.20;;;;;;;26.04;58.88;96561.69;5105218;28;20188;-60
2021/06/28 06:32:18;;;;;;;4.22;2.00;;;;;;;25.93;58.87;96555.16;5098485;28;20191;-59
2021/06/28 06:34:43;;;;;;;2.30;2.08;;;;;;;25.56;60.17;96558.81;5092974;28;20568;-60
2021/06/28 06:37:09;;;;;;;2.30;2.10;;;;;;;26.11;58.87;96558.47;5104576;28;20756;-59
2021/06/28 06:39:35;;;;;;;1.77;1.67;;;;;;;26.63;56.70;96556.03;5102193;28;20228;-59
2021/06/28 06:42:00;;;;;;;2.95;1.67;;;;;;;27.00;54.53;96562.22;5100185;28;20204;-59
2021/06/28 06:44:26;;;;;;;2.13;1.73;;;;;;;26.97;54.61;96562.13;5107621;28;20696;-58
2021/06/28 06:46:52;;;;;;;1.80;1.70;;;;;;;26.89;54.04;96558.41;5090490;28;20192;-60
2021/06/28 06:49:18;;;;;;;1.98;1.77;;;;;;;27.10;53.37;96566.34;5095077;28;20188;-59
2021/06/28 06:51:44;;;;;;;2.33;2.13;;;;;;;27.07;54.31;96569.72;5102563;28;20203;-59
2021/06/28 06:54:10;;;;;;;2.33;2.10;;;;;;;27.20;53.96;96568.56;5097077;28;20187;-58
2021/06/28 06:56:37;;;;;;;2.47;2.28;;;;;;;27.07;54.24;96577.78;5111160;28;20181;-58
2021/06/28 06:59:03;;;;;;;2.75;2.53;;;;;;;26.45;54.17;96578.84;5093759;28;20265;-58
2021/06/28 07:01:31;;;;;;;2.58;2.38;;;;;;;26.35;55.91;96585.44;5091200;28;20203;-59
2021/06/28 07:03:56;;;;;;;2.33;2.13;;;;;;;26.43;55.39;96589.94;5092326;28;20188;-59
2021/06/28 07:06:22;;;;;;;2.47;2.28;;;;;;;26.62;55.54;96583.25;5093992;28;20186;-59
2021/06/28 07:08:47;;;;;;;2.22;2.13;;;;;;;26.71;54.54;96590.09;5100565;28;20242;-59
2021/06/28 07:11:13;;;;;;;2.40;2.20;;;;;;;26.36;55.38;96588.94;5109261;28;20187;-59
2021/06/28 07:13:43;;;;;;;2.85;2.65;;;;;;;26.55;55.04;96596.44;5102101;28;20546;-59
2021/06/28 07:16:09;;;;;;;2.72;2.53;;;;;;;26.80;54.45;96596.16;5060679;28;20203;-59
2021/06/28 07:18:34;;;;;;;2.35;2.15;;;;;;;26.54;54.74;96589.50;5090894;28;20527;-59
2021/06/28 07:21:00;;;;;;;2.00;1.90;;;;;;;25.99;56.54;96586.09;5091728;28;20253;-60
2021/06/28 07:23:26;;;;;;;2.10;2.00;;;;;;;25.84;56.21;96589.38;5102633;28;20194;-59
2021/06/28 07:25:52;;;;;;;2.35;2.15;;;;;;;25.70;57.60;96588.84;5094610;28;20184;-60
2021/06/28 07:28:17;;;;;;;2.78;1.98;;;;;;;25.41;57.59;96597.72;5093020;28;20197;-59
2021/06/28 07:30:42;;;;;;;1.67;1.63;;;;;;;24.93;59.26;96592.81;5097614;28;20260;-59
2021/06/28 07:33:08;;;;;;;1.90;1.80;;;;;;;25.42;58.24;96593.13;5097001;28;20687;-60
2021/06/28 07:35:33;;;;;;;2.00;1.90;;;;;;;25.52;56.11;96590.84;5095361;28;20177;-59
2021/06/28 07:37:59;;;;;;;1.70;1.60;;;;;;;25.63;56.13;96594.00;5099498;28;20276;-59
2021/06/28 07:40:24;;;;;;;1.70;1.60;;;;;;;25.43;56.92;96595.50;5099334;28;20667;-59
2021/06/28 07:42:50;;;;;;;2.33;1.70;;;;;;;25.55;56.43;96590.22;5089328;28;20258;-60
2021/06/28 07:45:18;;;;;;;2.65;1.73;;;;;;;25.82;56.61;96593.50;5096745;28;20192;-59
2021/06/28 07:47:45;;;;;;;2.20;2.10;;;;;;;25.76;57.09;96595.59;5099328;28;20194;-59
2021/06/28 07:50:11;;;;;;;1.98;1.88;;;;;;;26.05;56.19;96600.88;5099557;28;20184;-59
2021/06/28 07:52:37;;;;;;;2.33;2.22;;;;;;;25.96;56.07;96600.19;5100836;28;20181;-59
2021/06/28 07:55:06;;;;;;;2.25;1.90;;;;;;;26.17;55.89;96608.19;5095215;28;20253;-59
2021/06/28 07:57:31;;;;;;;2.40;1.90;;;;;;;25.97;56.41;96599.03;5095820;28;20180;-59
2021/06/28 07:59:57;;;;;;;3.28;1.70;;;;;;;26.20;55.65;96601.38;5098156;28;20252;-60
2021/06/28 08:02:22;;;;;;;1.80;1.70;;;;;;;26.64;54.30;96595.22;5098357;28;20242;-59
2021/06/28 08:04:48;;;;;;;2.00;1.90;;;;;;;26.49;54.92;96596.66;5101246;28;20554;-59
2021/06/28 08:07:13;;;;;;;1.98;1.88;;;;;;;26.05;55.76;96603.56;5098593;28;20197;-59
2021/06/28 08:09:39;;;;;;;1.98;1.88;;;;;;;26.38;55.56;96600.91;5097537;28;20659;-60
2021/06/28 08:12:05;;;;;;;1.80;1.70;;;;;;;26.26;55.45;96608.94;5103807;28;20176;-59
2021/06/28 08:14:30;;;;;;;2.50;2.00;;;;;;;26.47;54.13;96603.50;5109482;28;20191;-59
2021/06/28 08:16:56;;;;;;;2.08;1.98;;;;;;;26.45;54.65;96594.97;5101853;28;20278;-60
2021/06/28 08:19:21;;;;;;;1.83;1.73;;;;;;;26.87;54.06;96601.78;5092029;28;20348;-60
2021/06/28 08:21:48;;;;;;;2.03;1.80;;;;;;;26.74;53.42;96594.81;5090603;28;20211;-58
2021/06/28 08:24:14;;;;;;;1.95;1.85;;;;;;;27.11;52.45;96592.94;5104734;28;20195;-60
2021/06/28 08:26:40;;;;;;;1.83;1.65;;;;;;;27.60;48.91;96596.34;5098931;28;20184;-58
2021/06/28 08:29:07;;;;;;;1.75;1.65;;;;;;;28.38;47.70;96589.66;5095173;28;20181;-58
2021/06/28 08:31:35;;;;;;;1.98;1.88;;;;;;;28.70;46.66;96580.44;5099853;28;20195;-59
2021/06/28 08:34:00;;;;;;;1.88;1.77;;;;;;;28.94;46.12;96591.09;5098623;28;20359;-57
2021/06/28 08:36:26;;;;;;;2.00;1.90;;;;;;;29.06;46.63;96581.34;5099448;28;20241;-58
2021/06/28 08:38:51;;;;;;;2.15;2.03;;;;;;;29.01;47.98;96584.31;5091109;28;20669;-59
2021/06/28 08:41:18;;;;;;;2.10;2.00;;;;;;;28.44;47.89;96574.78;5089441;28;20589;-58
2021/06/28 08:43:46;;;;;;;2.20;2.10;;;;;;;27.97;49.83;96582.78;5098541;28;20196;-60
2021/06/28 08:46:16;;;;;;;2.03;1.80;;;;;;;27.62;48.14;96587.94;5100942;28;20191;-58
2021/06/28 08:48:43;;;;;;;2.05;1.90;;;;;;;27.62;48.71;96585.25;5091522;28;20279;-59
2021/06/28 08:51:09;;;;;;;2.10;1.90;;;;;;;27.81;48.63;96577.31;5096165;28;20779;-59
2021/06/28 08:53:35;;;;;;;1.88;1.77;;;;;;;27.64;49.87;96580.31;5094043;28;20196;-58
2021/06/28 08:56:07;;;;;;;1.88;1.77;;;;;;;28.00;49.10;96577.47;5098879;28;20245;-59
2021/06/28 08:58:42;;;;;;;1.92;1.83;;;;;;;28.49;47.33;96579.91;5089658;28;20185;-59
2021/06/28 09:01:07;;;;;;;1.95;1.73;;;;;;;28.56;46.64;96582.81;5102241;28;20201;-59
2021/06/28 09:03:33;;;;;;;2.03;1.60;;;;;;;28.52;46.00;96584.63;5090589;28;20262;-59
2021/06/28 09:06:06;;;;;;;1.65;1.58;;;;;;;28.15;46.35;96585.94;5096362;28;20313;-58
2021/06/28 09:08:34;;;;;;;1.70;1.60;;;;;;;28.02;46.17;96601.38;5091743;28;20180;-58
2021/06/28 09:11:01;;;;;;;1.90;1.70;;;;;;;28.16;46.21;96595.63;5094580;28;20192;-58
2021/06/28 09:13:47;;;;;;;1.80;1.70;;;;;;;28.31;44.47;96595.63;5104623;28;20665;-58
2021/06/28 09:16:17;;;;;;;1.80;1.70;;;;;;;28.93;43.58;96597.63;5095021;28;20203;-59
2021/06/28 09:18:54;;;;;;;2.03;1.60;;;;;;;29.68;42.65;96599.31;5105641;28;20659;-58
2021/06/28 09:21:41;;;;;;;1.38;1.38;;;;;;;30.15;41.92;96604.53;5109473;28;20176;-58
2021/06/28 09:24:24;;;;;;;2.60;1.50;;;;;;;30.27;41.11;96606.31;5095827;28;20188;-58
2021/06/28 09:26:50;;;;;;;1.63;1.52;;;;;;;30.10;40.96;96608.31;5097568;28;20173;-60
2021/06/28 09:29:15;;;;;;;1.70;1.60;;;;;;;29.95;41.95;96608.41;5097639;28;20249;-59
2021/06/28 09:31:44;;;;;;;1.60;1.50;;;;;;;28.76;43.81;96606.06;5099264;28;20573;-58
2021/06/28 09:34:13;;;;;;;1.80;1.70;;;;;;;28.89;44.06;96607.56;5102488;28;20180;-58
2021/06/28 09:36:50;;;;;;;1.85;1.75;;;;;;;29.02;42.47;96599.38;5104756;28;20241;-59
2021/06/28 09:39:28;;;;;;;1.50;1.40;;;;;;;29.08;41.60;96604.16;5091949;28;20236;-58
2021/06/28 09:42:07;;;;;;;1.45;1.35;;;;;;;29.44;40.05;96597.66;5097032;28;20274;-59
2021/06/28 09:44:34;;;;;;;1.80;1.50;;;;;;;29.33;41.56;96594.72;5101608;28;20663;-59
2021/06/28 09:47:06;;;;;;;1.75;1.67;;;;;;;28.84;42.59;96588.16;5112924;28;20180;-59
2021/06/28 09:49:32;;;;;;;1.60;1.50;;;;;;;29.36;42.68;96581.66;5098316;28;20191;-59
2021/06/28 09:51:58;;;;;;;2.30;1.63;;;;;;;29.31;42.27;96582.69;5096241;28;20664;-60
2021/06/28 09:54:23;;;;;;;1.58;1.38;;;;;;;28.69;40.68;96586.22;5108254;28;20188;-59
2021/06/28 09:56:52;;;;;;;1.30;1.30;;;;;;;28.71;41.69;96581.22;5096974;28;20261;-60
2021/06/28 09:59:32;;;;;;;3.78;1.70;;;;;;;28.20;43.58;96581.09;5104902;28;20199;-59
2021/06/28 10:02:26;;;;;;;1.58;1.48;;;;;;;28.49;44.20;96579.91;5095084;28;20199;-59
2021/06/28 10:05:05;;;;;;;1.70;1.60;;;;;;;28.21;43.00;96576.50;5107991;28;20211;-60
2021/06/28 10:07:38;;;;;;;1.50;1.40;;;;;;;28.41;41.77;96584.38;5101253;28;20549;-59
2021/06/28 10:10:21;;;;;;;2.03;1.50;;;;;;;27.86;40.73;96576.31;5095029;28;20196;-59
2021/06/28 10:13:08;;;;;;;1.42;1.33;;;;;;;27.76;42.13;96568.69;5093921;28;20176;-59
2021/06/28 10:15:36;;;;;;;1.45;1.35;;;;;;;27.99;42.24;96573.19;5105200;28;20188;-59
2021/06/28 10:18:03;;;;;;;1.55;1.45;;;;;;;28.69;41.65;96564.63;5101992;28;20181;-59
2021/06/28 10:20:33;;;;;;;1.73;1.63;;;;;;;28.85;41.31;96565.44;5092279;28;20610;-59
2021/06/28 10:22:59;;;;;;;1.73;1.63;;;;;;;28.80;40.93;96571.88;5094367;28;20198;-59
2021/06/28 10:25:27;;;;;;;1.73;1.60;;;;;;;28.16;42.34;96572.13;5102145;28;20640;-58
2021/06/28 10:27:54;;;;;;;1.73;1.63;;;;;;;28.31;42.38;96563.28;5091207;28;20188;-60
2021/06/28 10:30:22;;;;;;;1.77;1.50;;;;;;;28.42;40.72;96563.59;5102000;28;20189;-58
2021/06/28 10:32:50;;;;;;;1.70;1.60;;;;;;;28.03;41.46;96567.94;5102897;28;20179;-59
2021/06/28 10:35:23;;;;;;;1.58;1.48;;;;;;;27.94;41.43;96559.19;5099455;28;20191;-59
2021/06/28 10:37:48;;;;;;;3.08;1.50;;;;;;;28.23;42.10;96564.25;5109520;28;20231;-59
2021/06/28 10:40:23;;;;;;;1.60;1.50;;;;;;;28.48;41.92;96554.88;5095497;28;20281;-59
2021/06/28 10:42:54;;;;;;;1.90;1.80;;;;;;;28.38;42.65;96560.78;5096733;28;20191;-57
2021/06/28 10:45:38;;;;;;;1.90;1.80;;;;;;;28.19;43.51;96560.69;5109092;28;20194;-60
2021/06/28 10:48:11;;;;;;;4.13;1.85;;;;;;;28.06;43.91;96559.13;5106276;28;20176;-60
2021/06/28 10:50:58;;;;;;;2.85;1.80;;;;;;;27.96;44.17;96549.66;5112373;28;20195;-59
2021/06/28 10:53:33;;;;;;;1.98;1.70;;;;;;;28.09;43.22;96548.44;5110229;28;20183;-59
2021/06/28 10:55:59;;;;;;;1.77;1.67;;;;;;;28.09;43.37;96537.66;5098371;28;20275;-59
2021/06/28 10:58:32;;;;;;;1.77;1.60;;;;;;;28.16;43.38;96534.41;5095912;28;20196;-59
2021/06/28 11:01:06;;;;;;;2.00;1.90;;;;;;;27.95;43.83;96537.31;5101750;28;20200;-59
2021/06/28 11:03:33;;;;;;;1.73;1.63;;;;;;;28.17;43.89;96527.88;5108210;28;20195;-58
2021/06/28 11:06:22;;;;;;;1.90;1.80;;;;;;;28.73;42.75;96527.75;5092037;28;20192;-59
2021/06/28 11:09:01;;;;;;;2.00;1.90;;;;;;;28.89;44.32;96528.50;5109225;28;20183;-59
2021/06/28 11:11:45;;;;;;;1.90;1.80;;;;;;;28.88;44.21;96526.94;5101668;28;20234;-59
2021/06/28 11:14:30;;;;;;;1.75;1.60;;;;;;;28.74;44.17;96519.31;5107801;28;20191;-59
2021/06/28 11:16:57;;;;;;;1.90;1.80;;;;;;;28.66;44.40;96514.84;5086479;28;20194;-58
2021/06/28 11:19:51;;;;;;;2.10;1.90;;;;;;;28.65;45.37;96517.88;5092337;28;20737;-59
2021/06/28 11:22:26;;;;;;;1.70;1.60;;;;;;;29.13;43.75;96512.09;5107823;28;20662;-58
2021/06/28 11:24:57;;;;;;;2.10;2.00;;;;;;;29.40;43.20;96512.28;5107210;28;20561;-61
2021/06/28 11:27:23;;;;;;;1.80;1.70;;;;;;;29.00;43.43;96507.16;5104348;28;20188;-59
2021/06/28 11:29:54;;;;;;;1.85;1.75;;;;;;;28.53;45.53;96506.06;5093229;28;20703;-58
2021/06/28 11:32:26;;;;;;;2.00;1.90;;;;;;;29.25;43.76;96497.69;5107895;28;20179;-58
2021/06/28 11:34:52;;;;;;;3.00;1.90;;;;;;;28.73;43.86;96506.16;5102580;28;20613;-61
2021/06/28 11:37:18;;;;;;;2.00;1.90;;;;;;;28.82;44.06;96499.44;5091149;28;20183;-59